Terminal Aerodrome Forecast
Issued by NWS North Platte, NE

Home | Current Version | Previous Version | Text Only | Print | Product List | Glossary Off
Versions: 1 2 3 4 5 6 7 8 9 10 11 12 13 14 15 16

821
FTUS43 KLBF 202320
TAFVTN
TAF
KVTN 202320Z 2100/2124 36010KT P6SM FEW012 BKN050 OVC060
     FM210200 35005KT P6SM BKN060
     FM210600 29007KT P6SM SCT050
     FM211500 31012KT P6SM FEW250
     FM211800 31012G18KT P6SM BKN080=

USA.gov is the U.S. government's official web portal to all federal, state and local government web resources and services.